sensor_id;sensor_type;location;lat;lon;timestamp;P1;durP1;ratioP1;P2;durP2;ratioP2
67571;SDS011;54397;47.506;19.158;2023-02-26T00:02:11;3.33;;;2.60;;
67571;SDS011;54397;47.506;19.158;2023-02-26T00:05:35;3.00;;;2.40;;
67571;SDS011;54397;47.506;19.158;2023-02-26T00:08:56;3.60;;;2.40;;
67571;SDS011;54397;47.506;19.158;2023-02-26T00:12:20;4.07;;;2.40;;
67571;SDS011;54397;47.506;19.158;2023-02-26T00:15:42;2.77;;;2.57;;
67571;SDS011;54397;47.506;19.158;2023-02-26T00:19:05;4.40;;;2.67;;
67571;SDS011;54397;47.506;19.158;2023-02-26T00:22:31;2.80;;;2.40;;
67571;SDS011;54397;47.506;19.158;2023-02-26T00:25:56;3.30;;;2.50;;
67571;SDS011;54397;47.506;19.158;2023-02-26T00:29:18;3.80;;;2.23;;
67571;SDS011;54397;47.506;19.158;2023-02-26T00:32:43;3.40;;;2.73;;
67571;SDS011;54397;47.506;19.158;2023-02-26T00:36:18;2.53;;;2.33;;
67571;SDS011;54397;47.506;19.158;2023-02-26T00:43:16;4.43;;;2.80;;
67571;SDS011;54397;47.506;19.158;2023-02-26T00:50:19;5.37;;;2.80;;
67571;SDS011;54397;47.506;19.158;2023-02-26T00:53:45;3.77;;;2.70;;
67571;SDS011;54397;47.506;19.158;2023-02-26T01:00:34;2.67;;;2.40;;
67571;SDS011;54397;47.506;19.158;2023-02-26T01:03:55;3.40;;;2.63;;
67571;SDS011;54397;47.506;19.158;2023-02-26T01:07:21;3.00;;;2.60;;
67571;SDS011;54397;47.506;19.158;2023-02-26T01:10:44;2.97;;;2.63;;
67571;SDS011;54397;47.506;19.158;2023-02-26T01:14:09;3.10;;;2.77;;
67571;SDS011;54397;47.506;19.158;2023-02-26T01:17:32;3.40;;;2.60;;
67571;SDS011;54397;47.506;19.158;2023-02-26T01:21:06;3.80;;;2.90;;
67571;SDS011;54397;47.506;19.158;2023-02-26T01:24:32;3.20;;;2.60;;
67571;SDS011;54397;47.506;19.158;2023-02-26T01:27:56;2.83;;;2.63;;
67571;SDS011;54397;47.506;19.158;2023-02-26T01:31:37;3.73;;;2.47;;
67571;SDS011;54397;47.506;19.158;2023-02-26T01:42:35;3.00;;;2.70;;
67571;SDS011;54397;47.506;19.158;2023-02-26T01:46:17;4.87;;;2.60;;
67571;SDS011;54397;47.506;19.158;2023-02-26T01:49:43;2.87;;;2.67;;
67571;SDS011;54397;47.506;19.158;2023-02-26T01:53:21;3.63;;;2.60;;
67571;SDS011;54397;47.506;19.158;2023-02-26T01:56:46;2.97;;;2.60;;
67571;SDS011;54397;47.506;19.158;2023-02-26T02:00:10;3.73;;;2.57;;
67571;SDS011;54397;47.506;19.158;2023-02-26T02:03:33;2.73;;;2.37;;
67571;SDS011;54397;47.506;19.158;2023-02-26T02:06:57;4.80;;;2.77;;
67571;SDS011;54397;47.506;19.158;2023-02-26T02:10:19;3.47;;;2.97;;
67571;SDS011;54397;47.506;19.158;2023-02-26T02:17:20;2.50;;;2.30;;
67571;SDS011;54397;47.506;19.158;2023-02-26T02:28:24;3.43;;;2.83;;
67571;SDS011;54397;47.506;19.158;2023-02-26T02:31:59;2.90;;;2.50;;
67571;SDS011;54397;47.506;19.158;2023-02-26T02:35:28;3.00;;;2.70;;
67571;SDS011;54397;47.506;19.158;2023-02-26T02:38:56;4.50;;;2.67;;
67571;SDS011;54397;47.506;19.158;2023-02-26T02:45:57;5.67;;;2.90;;
67571;SDS011;54397;47.506;19.158;2023-02-26T02:49:30;3.43;;;2.63;;
67571;SDS011;54397;47.506;19.158;2023-02-26T02:53:10;2.90;;;2.57;;
67571;SDS011;54397;47.506;19.158;2023-02-26T02:56:45;2.83;;;2.53;;
67571;SDS011;54397;47.506;19.158;2023-02-26T03:00:10;2.90;;;2.60;;
67571;SDS011;54397;47.506;19.158;2023-02-26T03:03:41;3.33;;;2.63;;
67571;SDS011;54397;47.506;19.158;2023-02-26T03:07:09;3.27;;;2.57;;
67571;SDS011;54397;47.506;19.158;2023-02-26T03:10:31;3.47;;;2.80;;
67571;SDS011;54397;47.506;19.158;2023-02-26T03:13:53;3.17;;;2.60;;
67571;SDS011;54397;47.506;19.158;2023-02-26T03:17:35;3.57;;;2.80;;
67571;SDS011;54397;47.506;19.158;2023-02-26T03:21:16;3.70;;;2.72;;
67571;SDS011;54397;47.506;19.158;2023-02-26T03:24:47;3.30;;;2.90;;
67571;SDS011;54397;47.506;19.158;2023-02-26T03:28:19;3.43;;;2.80;;
67571;SDS011;54397;47.506;19.158;2023-02-26T03:35:17;3.53;;;3.00;;
67571;SDS011;54397;47.506;19.158;2023-02-26T03:42:27;4.43;;;3.10;;
67571;SDS011;54397;47.506;19.158;2023-02-26T03:45:56;3.60;;;2.90;;
67571;SDS011;54397;47.506;19.158;2023-02-26T03:49:25;3.60;;;3.07;;
67571;SDS011;54397;47.506;19.158;2023-02-26T03:52:49;4.13;;;3.03;;
67571;SDS011;54397;47.506;19.158;2023-02-26T03:59:48;4.00;;;3.13;;
67571;SDS011;54397;47.506;19.158;2023-02-26T04:03:21;4.50;;;3.10;;
67571;SDS011;54397;47.506;19.158;2023-02-26T04:06:51;4.27;;;3.57;;
67571;SDS011;54397;47.506;19.158;2023-02-26T04:10:21;3.65;;;3.08;;
67571;SDS011;54397;47.506;19.158;2023-02-26T04:13:49;3.37;;;2.87;;
67571;SDS011;54397;47.506;19.158;2023-02-26T04:17:11;3.80;;;3.30;;
67571;SDS011;54397;47.506;19.158;2023-02-26T04:20:33;5.30;;;3.73;;
67571;SDS011;54397;47.506;19.158;2023-02-26T04:23:54;5.30;;;3.60;;
67571;SDS011;54397;47.506;19.158;2023-02-26T04:27:18;4.27;;;2.97;;
67571;SDS011;54397;47.506;19.158;2023-02-26T04:30:40;5.37;;;3.43;;
67571;SDS011;54397;47.506;19.158;2023-02-26T04:34:02;4.00;;;3.10;;
67571;SDS011;54397;47.506;19.158;2023-02-26T04:37:24;4.47;;;3.30;;
67571;SDS011;54397;47.506;19.158;2023-02-26T04:40:49;3.73;;;3.37;;
67571;SDS011;54397;47.506;19.158;2023-02-26T04:44:13;5.07;;;3.33;;
67571;SDS011;54397;47.506;19.158;2023-02-26T04:47:38;4.10;;;3.23;;
67571;SDS011;54397;47.506;19.158;2023-02-26T04:50:59;4.70;;;3.40;;
67571;SDS011;54397;47.506;19.158;2023-02-26T04:54:21;5.63;;;3.27;;
67571;SDS011;54397;47.506;19.158;2023-02-26T04:57:43;4.83;;;3.70;;
67571;SDS011;54397;47.506;19.158;2023-02-26T05:01:05;4.77;;;3.50;;
67571;SDS011;54397;47.506;19.158;2023-02-26T05:04:27;4.23;;;3.43;;
67571;SDS011;54397;47.506;19.158;2023-02-26T05:07:49;21.93;;;10.80;;
67571;SDS011;54397;47.506;19.158;2023-02-26T05:11:15;4.43;;;3.70;;
67571;SDS011;54397;47.506;19.158;2023-02-26T05:14:37;4.50;;;3.60;;
67571;SDS011;54397;47.506;19.158;2023-02-26T05:17:58;6.83;;;3.80;;
67571;SDS011;54397;47.506;19.158;2023-02-26T05:21:23;32.43;;;17.77;;
67571;SDS011;54397;47.506;19.158;2023-02-26T05:24:49;5.10;;;3.87;;
67571;SDS011;54397;47.506;19.158;2023-02-26T05:28:13;5.53;;;3.63;;
67571;SDS011;54397;47.506;19.158;2023-02-26T05:31:34;5.87;;;3.37;;
67571;SDS011;54397;47.506;19.158;2023-02-26T05:34:56;4.20;;;3.23;;
67571;SDS011;54397;47.506;19.158;2023-02-26T05:38:18;4.07;;;3.40;;
67571;SDS011;54397;47.506;19.158;2023-02-26T05:41:42;4.33;;;3.67;;
67571;SDS011;54397;47.506;19.158;2023-02-26T05:45:07;4.17;;;3.50;;
67571;SDS011;54397;47.506;19.158;2023-02-26T05:48:29;4.27;;;3.50;;
67571;SDS011;54397;47.506;19.158;2023-02-26T05:51:50;3.77;;;3.47;;
67571;SDS011;54397;47.506;19.158;2023-02-26T05:55:12;5.40;;;3.67;;
67571;SDS011;54397;47.506;19.158;2023-02-26T05:58:36;4.50;;;3.83;;
67571;SDS011;54397;47.506;19.158;2023-02-26T06:02:00;4.17;;;3.57;;
67571;SDS011;54397;47.506;19.158;2023-02-26T06:05:22;4.87;;;3.70;;
67571;SDS011;54397;47.506;19.158;2023-02-26T06:08:44;3.97;;;3.37;;
67571;SDS011;54397;47.506;19.158;2023-02-26T06:12:06;6.90;;;4.63;;
67571;SDS011;54397;47.506;19.158;2023-02-26T06:15:28;4.93;;;3.57;;
67571;SDS011;54397;47.506;19.158;2023-02-26T06:18:52;5.97;;;4.00;;
67571;SDS011;54397;47.506;19.158;2023-02-26T06:22:14;4.03;;;3.63;;
67571;SDS011;54397;47.506;19.158;2023-02-26T06:25:38;3.67;;;3.37;;
67571;SDS011;54397;47.506;19.158;2023-02-26T06:28:59;6.43;;;4.60;;
67571;SDS011;54397;47.506;19.158;2023-02-26T06:32:22;11.27;;;7.90;;
67571;SDS011;54397;47.506;19.158;2023-02-26T06:35:51;5.03;;;4.00;;
67571;SDS011;54397;47.506;19.158;2023-02-26T06:39:12;3.77;;;3.37;;
67571;SDS011;54397;47.506;19.158;2023-02-26T06:42:34;3.90;;;3.50;;
67571;SDS011;54397;47.506;19.158;2023-02-26T06:46:00;6.27;;;3.83;;
67571;SDS011;54397;47.506;19.158;2023-02-26T06:49:22;5.40;;;3.67;;
67571;SDS011;54397;47.506;19.158;2023-02-26T06:52:44;7.83;;;4.47;;
67571;SDS011;54397;47.506;19.158;2023-02-26T06:56:05;14.07;;;7.70;;
67571;SDS011;54397;47.506;19.158;2023-02-26T06:59:30;8.57;;;5.47;;
67571;SDS011;54397;47.506;19.158;2023-02-26T07:02:51;8.43;;;5.57;;
67571;SDS011;54397;47.506;19.158;2023-02-26T07:06:16;5.17;;;4.03;;
67571;SDS011;54397;47.506;19.158;2023-02-26T07:09:50;5.00;;;4.10;;
67571;SDS011;54397;47.506;19.158;2023-02-26T07:13:12;4.90;;;3.70;;
67571;SDS011;54397;47.506;19.158;2023-02-26T07:16:33;5.37;;;4.07;;
67571;SDS011;54397;47.506;19.158;2023-02-26T07:20:00;6.00;;;4.60;;
67571;SDS011;54397;47.506;19.158;2023-02-26T07:23:26;6.00;;;4.00;;
67571;SDS011;54397;47.506;19.158;2023-02-26T07:26:48;8.30;;;5.03;;
67571;SDS011;54397;47.506;19.158;2023-02-26T07:30:11;6.87;;;4.43;;
67571;SDS011;54397;47.506;19.158;2023-02-26T07:33:33;6.57;;;3.90;;
67571;SDS011;54397;47.506;19.158;2023-02-26T07:36:55;8.70;;;3.67;;
67571;SDS011;54397;47.506;19.158;2023-02-26T07:40:19;4.27;;;3.87;;
67571;SDS011;54397;47.506;19.158;2023-02-26T07:43:40;5.80;;;4.00;;
67571;SDS011;54397;47.506;19.158;2023-02-26T07:47:02;6.57;;;4.43;;
67571;SDS011;54397;47.506;19.158;2023-02-26T07:50:26;8.37;;;4.90;;
67571;SDS011;54397;47.506;19.158;2023-02-26T07:53:48;7.30;;;5.50;;
67571;SDS011;54397;47.506;19.158;2023-02-26T07:57:10;5.67;;;4.00;;
67571;SDS011;54397;47.506;19.158;2023-02-26T08:00:34;5.43;;;3.60;;
67571;SDS011;54397;47.506;19.158;2023-02-26T08:03:55;5.13;;;3.93;;
67571;SDS011;54397;47.506;19.158;2023-02-26T08:07:17;4.03;;;3.40;;
67571;SDS011;54397;47.506;19.158;2023-02-26T08:10:39;4.40;;;3.80;;
67571;SDS011;54397;47.506;19.158;2023-02-26T08:14:04;5.13;;;4.00;;
67571;SDS011;54397;47.506;19.158;2023-02-26T08:17:26;6.43;;;4.23;;
67571;SDS011;54397;47.506;19.158;2023-02-26T08:20:49;4.77;;;4.07;;
67571;SDS011;54397;47.506;19.158;2023-02-26T08:24:12;5.07;;;3.80;;
67571;SDS011;54397;47.506;19.158;2023-02-26T08:27:34;4.87;;;3.80;;
67571;SDS011;54397;47.506;19.158;2023-02-26T08:30:56;5.13;;;4.03;;
67571;SDS011;54397;47.506;19.158;2023-02-26T08:34:20;6.63;;;4.37;;
67571;SDS011;54397;47.506;19.158;2023-02-26T08:37:42;6.00;;;4.97;;
67571;SDS011;54397;47.506;19.158;2023-02-26T08:41:03;5.37;;;4.63;;
67571;SDS011;54397;47.506;19.158;2023-02-26T08:44:25;13.30;;;9.97;;
67571;SDS011;54397;47.506;19.158;2023-02-26T08:47:49;8.07;;;5.37;;
67571;SDS011;54397;47.506;19.158;2023-02-26T08:51:19;5.13;;;4.33;;
67571;SDS011;54397;47.506;19.158;2023-02-26T08:54:43;4.93;;;4.07;;
67571;SDS011;54397;47.506;19.158;2023-02-26T08:58:05;7.07;;;4.30;;
67571;SDS011;54397;47.506;19.158;2023-02-26T09:01:30;4.20;;;3.67;;
67571;SDS011;54397;47.506;19.158;2023-02-26T09:04:51;8.70;;;5.67;;
67571;SDS011;54397;47.506;19.158;2023-02-26T09:08:15;4.60;;;3.17;;
67571;SDS011;54397;47.506;19.158;2023-02-26T09:11:37;4.25;;;3.08;;
67571;SDS011;54397;47.506;19.158;2023-02-26T09:15:02;6.43;;;4.53;;
67571;SDS011;54397;47.506;19.158;2023-02-26T09:18:27;5.47;;;4.03;;
67571;SDS011;54397;47.506;19.158;2023-02-26T09:21:51;3.60;;;2.87;;
67571;SDS011;54397;47.506;19.158;2023-02-26T09:25:12;5.53;;;3.30;;
67571;SDS011;54397;47.506;19.158;2023-02-26T09:28:39;4.30;;;3.00;;
67571;SDS011;54397;47.506;19.158;2023-02-26T09:32:03;4.53;;;3.30;;
67571;SDS011;54397;47.506;19.158;2023-02-26T09:35:28;5.00;;;3.10;;
67571;SDS011;54397;47.506;19.158;2023-02-26T09:38:50;18.47;;;11.13;;
67571;SDS011;54397;47.506;19.158;2023-02-26T09:45:57;4.53;;;3.40;;
67571;SDS011;54397;47.506;19.158;2023-02-26T09:52:55;5.07;;;3.30;;
67571;SDS011;54397;47.506;19.158;2023-02-26T09:56:31;3.65;;;2.67;;
67571;SDS011;54397;47.506;19.158;2023-02-26T09:59:57;4.60;;;2.53;;
67571;SDS011;54397;47.506;19.158;2023-02-26T10:03:24;3.35;;;2.75;;
67571;SDS011;54397;47.506;19.158;2023-02-26T10:13:45;4.20;;;2.90;;
67571;SDS011;54397;47.506;19.158;2023-02-26T10:21:15;5.00;;;3.38;;
67571;SDS011;54397;47.506;19.158;2023-02-26T10:24:46;9.55;;;7.20;;
67571;SDS011;54397;47.506;19.158;2023-02-26T10:35:41;4.55;;;3.40;;
67571;SDS011;54397;47.506;19.158;2023-02-26T10:39:21;3.65;;;3.17;;
67571;SDS011;54397;47.506;19.158;2023-02-26T10:42:47;3.70;;;3.28;;
67571;SDS011;54397;47.506;19.158;2023-02-26T10:49:55;5.25;;;4.00;;
67571;SDS011;54397;47.506;19.158;2023-02-26T10:53:22;5.50;;;3.75;;
67571;SDS011;54397;47.506;19.158;2023-02-26T10:56:46;4.22;;;3.10;;
67571;SDS011;54397;47.506;19.158;2023-02-26T11:00:15;4.68;;;3.53;;
67571;SDS011;54397;47.506;19.158;2023-02-26T11:03:40;3.38;;;3.08;;
67571;SDS011;54397;47.506;19.158;2023-02-26T11:07:04;3.88;;;3.20;;
67571;SDS011;54397;47.506;19.158;2023-02-26T11:11:10;13.60;;;8.77;;
67571;SDS011;54397;47.506;19.158;2023-02-26T11:14:18;4.10;;;3.70;;
67571;SDS011;54397;47.506;19.158;2023-02-26T11:17:42;5.47;;;4.30;;
67571;SDS011;54397;47.506;19.158;2023-02-26T11:21:04;4.82;;;4.15;;
67571;SDS011;54397;47.506;19.158;2023-02-26T11:24:39;5.05;;;4.18;;
67571;SDS011;54397;47.506;19.158;2023-02-26T11:31:46;5.93;;;5.22;;
67571;SDS011;54397;47.506;19.158;2023-02-26T11:35:14;6.27;;;5.03;;
67571;SDS011;54397;47.506;19.158;2023-02-26T11:38:37;8.00;;;5.37;;
67571;SDS011;54397;47.506;19.158;2023-02-26T11:42:00;6.17;;;5.03;;
67571;SDS011;54397;47.506;19.158;2023-02-26T11:45:27;5.72;;;5.00;;
67571;SDS011;54397;47.506;19.158;2023-02-26T11:48:52;8.05;;;4.60;;
67571;SDS011;54397;47.506;19.158;2023-02-26T11:52:21;6.45;;;4.90;;
67571;SDS011;54397;47.506;19.158;2023-02-26T11:55:51;4.97;;;4.43;;
67571;SDS011;54397;47.506;19.158;2023-02-26T11:59:23;6.22;;;4.90;;
67571;SDS011;54397;47.506;19.158;2023-02-26T12:02:45;6.63;;;5.93;;
67571;SDS011;54397;47.506;19.158;2023-02-26T12:06:17;13.57;;;9.68;;
67571;SDS011;54397;47.506;19.158;2023-02-26T12:09:40;13.45;;;9.90;;
67571;SDS011;54397;47.506;19.158;2023-02-26T12:13:15;41.70;;;24.73;;
67571;SDS011;54397;47.506;19.158;2023-02-26T12:38:24;6.88;;;5.53;;
67571;SDS011;54397;47.506;19.158;2023-02-26T12:41:59;7.35;;;6.43;;
67571;SDS011;54397;47.506;19.158;2023-02-26T12:49:30;7.50;;;6.15;;
67571;SDS011;54397;47.506;19.158;2023-02-26T13:00:22;8.35;;;6.47;;
67571;SDS011;54397;47.506;19.158;2023-02-26T13:23:01;8.73;;;6.65;;
67571;SDS011;54397;47.506;19.158;2023-02-26T13:26:31;8.10;;;6.90;;
67571;SDS011;54397;47.506;19.158;2023-02-26T13:33:34;7.75;;;6.45;;
67571;SDS011;54397;47.506;19.158;2023-02-26T13:36:58;7.73;;;6.70;;
67571;SDS011;54397;47.506;19.158;2023-02-26T14:05:07;5.13;;;3.45;;
67571;SDS011;54397;47.506;19.158;2023-02-26T14:09:01;5.63;;;3.53;;
67571;SDS011;54397;47.506;19.158;2023-02-26T14:12:33;6.90;;;4.13;;
67571;SDS011;54397;47.506;19.158;2023-02-26T14:19:28;4.70;;;3.40;;
67571;SDS011;54397;47.506;19.158;2023-02-26T14:26:32;5.00;;;3.53;;
67571;SDS011;54397;47.506;19.158;2023-02-26T14:29:59;4.80;;;3.20;;
67571;SDS011;54397;47.506;19.158;2023-02-26T14:33:28;6.23;;;3.87;;
67571;SDS011;54397;47.506;19.158;2023-02-26T14:36:52;5.50;;;3.60;;
67571;SDS011;54397;47.506;19.158;2023-02-26T14:40:21;5.70;;;3.60;;
67571;SDS011;54397;47.506;19.158;2023-02-26T14:43:55;7.03;;;4.40;;
67571;SDS011;54397;47.506;19.158;2023-02-26T14:47:23;5.13;;;3.80;;
67571;SDS011;54397;47.506;19.158;2023-02-26T15:10:02;10.73;;;5.37;;
67571;SDS011;54397;47.506;19.158;2023-02-26T15:25:22;4.30;;;3.55;;
67571;SDS011;54397;47.506;19.158;2023-02-26T15:28:49;6.33;;;3.80;;
67571;SDS011;54397;47.506;19.158;2023-02-26T15:32:24;5.10;;;3.83;;
67571;SDS011;54397;47.506;19.158;2023-02-26T15:35:48;5.43;;;3.90;;
67571;SDS011;54397;47.506;19.158;2023-02-26T15:39:11;6.97;;;4.30;;
67571;SDS011;54397;47.506;19.158;2023-02-26T15:42:37;6.63;;;4.53;;
67571;SDS011;54397;47.506;19.158;2023-02-26T15:46:01;7.47;;;4.37;;
67571;SDS011;54397;47.506;19.158;2023-02-26T15:49:28;9.93;;;4.97;;
67571;SDS011;54397;47.506;19.158;2023-02-26T15:52:54;9.27;;;5.50;;
67571;SDS011;54397;47.506;19.158;2023-02-26T15:56:23;9.80;;;5.27;;
67571;SDS011;54397;47.506;19.158;2023-02-26T15:59:50;8.30;;;4.87;;
67571;SDS011;54397;47.506;19.158;2023-02-26T16:03:15;9.30;;;5.47;;
67571;SDS011;54397;47.506;19.158;2023-02-26T16:06:41;6.97;;;5.03;;
67571;SDS011;54397;47.506;19.158;2023-02-26T16:10:25;12.13;;;5.47;;
67571;SDS011;54397;47.506;19.158;2023-02-26T16:13:54;15.70;;;9.40;;
67571;SDS011;54397;47.506;19.158;2023-02-26T16:17:24;24.70;;;12.10;;
67571;SDS011;54397;47.506;19.158;2023-02-26T16:20:50;7.77;;;4.70;;
67571;SDS011;54397;47.506;19.158;2023-02-26T16:24:18;9.63;;;5.13;;
67571;SDS011;54397;47.506;19.158;2023-02-26T16:27:44;12.07;;;5.03;;
67571;SDS011;54397;47.506;19.158;2023-02-26T16:31:18;6.67;;;4.53;;
67571;SDS011;54397;47.506;19.158;2023-02-26T16:34:49;8.40;;;4.53;;
67571;SDS011;54397;47.506;19.158;2023-02-26T16:38:20;10.43;;;4.70;;
67571;SDS011;54397;47.506;19.158;2023-02-26T16:41:47;8.63;;;5.37;;
67571;SDS011;54397;47.506;19.158;2023-02-26T16:52:40;12.50;;;6.90;;
67571;SDS011;54397;47.506;19.158;2023-02-26T16:56:02;13.43;;;6.90;;
67571;SDS011;54397;47.506;19.158;2023-02-26T16:59:27;10.40;;;6.57;;
67571;SDS011;54397;47.506;19.158;2023-02-26T17:02:53;11.00;;;6.33;;
67571;SDS011;54397;47.506;19.158;2023-02-26T17:06:15;8.93;;;6.23;;
67571;SDS011;54397;47.506;19.158;2023-02-26T17:09:40;10.77;;;6.33;;
67571;SDS011;54397;47.506;19.158;2023-02-26T17:16:39;37.97;;;19.17;;
67571;SDS011;54397;47.506;19.158;2023-02-26T17:20:01;27.80;;;13.93;;
67571;SDS011;54397;47.506;19.158;2023-02-26T17:23:25;7.70;;;5.43;;
67571;SDS011;54397;47.506;19.158;2023-02-26T17:26:50;9.23;;;6.13;;
67571;SDS011;54397;47.506;19.158;2023-02-26T17:30:19;12.57;;;6.00;;
67571;SDS011;54397;47.506;19.158;2023-02-26T17:33:49;9.63;;;5.67;;
67571;SDS011;54397;47.506;19.158;2023-02-26T17:37:12;9.13;;;6.20;;
67571;SDS011;54397;47.506;19.158;2023-02-26T17:40:38;9.43;;;5.40;;
67571;SDS011;54397;47.506;19.158;2023-02-26T17:44:03;8.75;;;5.90;;
67571;SDS011;54397;47.506;19.158;2023-02-26T17:47:25;11.87;;;6.97;;
67571;SDS011;54397;47.506;19.158;2023-02-26T17:50:49;9.50;;;6.33;;
67571;SDS011;54397;47.506;19.158;2023-02-26T17:54:12;11.70;;;6.07;;
67571;SDS011;54397;47.506;19.158;2023-02-26T17:57:36;9.27;;;5.90;;
67571;SDS011;54397;47.506;19.158;2023-02-26T18:01:00;9.77;;;6.20;;
67571;SDS011;54397;47.506;19.158;2023-02-26T18:04:23;9.90;;;6.40;;
67571;SDS011;54397;47.506;19.158;2023-02-26T18:07:46;9.73;;;6.63;;
67571;SDS011;54397;47.506;19.158;2023-02-26T18:11:10;10.60;;;6.63;;
67571;SDS011;54397;47.506;19.158;2023-02-26T18:14:37;11.60;;;7.40;;
67571;SDS011;54397;47.506;19.158;2023-02-26T18:17:58;13.60;;;8.17;;
67571;SDS011;54397;47.506;19.158;2023-02-26T18:21:20;11.17;;;7.80;;
67571;SDS011;54397;47.506;19.158;2023-02-26T18:24:42;11.87;;;7.83;;
67571;SDS011;54397;47.506;19.158;2023-02-26T18:28:03;12.80;;;7.43;;
67571;SDS011;54397;47.506;19.158;2023-02-26T18:31:26;14.03;;;8.10;;
67571;SDS011;54397;47.506;19.158;2023-02-26T18:34:55;11.90;;;7.97;;
67571;SDS011;54397;47.506;19.158;2023-02-26T18:38:18;15.17;;;8.93;;
67571;SDS011;54397;47.506;19.158;2023-02-26T18:41:44;16.37;;;9.37;;
67571;SDS011;54397;47.506;19.158;2023-02-26T18:45:08;15.07;;;9.50;;
67571;SDS011;54397;47.506;19.158;2023-02-26T18:48:31;14.73;;;9.63;;
67571;SDS011;54397;47.506;19.158;2023-02-26T18:51:55;13.13;;;8.97;;
67571;SDS011;54397;47.506;19.158;2023-02-26T18:55:17;13.83;;;9.03;;
67571;SDS011;54397;47.506;19.158;2023-02-26T18:58:38;15.83;;;9.30;;
67571;SDS011;54397;47.506;19.158;2023-02-26T19:02:01;20.10;;;9.13;;
67571;SDS011;54397;47.506;19.158;2023-02-26T19:05:24;14.50;;;9.03;;
67571;SDS011;54397;47.506;19.158;2023-02-26T19:08:47;11.83;;;8.43;;
67571;SDS011;54397;47.506;19.158;2023-02-26T19:12:09;14.20;;;9.40;;
67571;SDS011;54397;47.506;19.158;2023-02-26T19:15:34;17.37;;;10.27;;
67571;SDS011;54397;47.506;19.158;2023-02-26T19:18:58;30.43;;;17.23;;
67571;SDS011;54397;47.506;19.158;2023-02-26T19:22:26;33.33;;;16.30;;
67571;SDS011;54397;47.506;19.158;2023-02-26T19:25:49;28.00;;;12.87;;
67571;SDS011;54397;47.506;19.158;2023-02-26T19:29:13;34.27;;;14.90;;
67571;SDS011;54397;47.506;19.158;2023-02-26T19:32:37;34.73;;;13.80;;
67571;SDS011;54397;47.506;19.158;2023-02-26T19:35:59;34.00;;;12.67;;
67571;SDS011;54397;47.506;19.158;2023-02-26T19:39:20;27.50;;;13.57;;
67571;SDS011;54397;47.506;19.158;2023-02-26T19:42:42;22.27;;;12.20;;
67571;SDS011;54397;47.506;19.158;2023-02-26T19:46:07;19.23;;;12.03;;
67571;SDS011;54397;47.506;19.158;2023-02-26T19:49:28;22.57;;;12.80;;
67571;SDS011;54397;47.506;19.158;2023-02-26T19:52:55;24.87;;;13.17;;
67571;SDS011;54397;47.506;19.158;2023-02-26T19:56:18;25.10;;;11.30;;
67571;SDS011;54397;47.506;19.158;2023-02-26T19:59:40;15.57;;;9.07;;
67571;SDS011;54397;47.506;19.158;2023-02-26T20:03:04;19.03;;;10.80;;
67571;SDS011;54397;47.506;19.158;2023-02-26T20:06:28;13.97;;;9.60;;
67571;SDS011;54397;47.506;19.158;2023-02-26T20:09:50;13.73;;;8.93;;
67571;SDS011;54397;47.506;19.158;2023-02-26T20:13:12;16.10;;;9.60;;
67571;SDS011;54397;47.506;19.158;2023-02-26T20:16:34;16.80;;;10.60;;
67571;SDS011;54397;47.506;19.158;2023-02-26T20:19:55;28.00;;;9.90;;
67571;SDS011;54397;47.506;19.158;2023-02-26T20:23:17;14.03;;;9.00;;
67571;SDS011;54397;47.506;19.158;2023-02-26T20:26:41;16.60;;;9.17;;
67571;SDS011;54397;47.506;19.158;2023-02-26T20:30:05;14.37;;;9.13;;
67571;SDS011;54397;47.506;19.158;2023-02-26T20:33:27;16.53;;;9.53;;
67571;SDS011;54397;47.506;19.158;2023-02-26T20:36:58;12.60;;;8.05;;
67571;SDS011;54397;47.506;19.158;2023-02-26T20:40:20;13.33;;;8.23;;
67571;SDS011;54397;47.506;19.158;2023-02-26T20:43:42;15.70;;;8.27;;
67571;SDS011;54397;47.506;19.158;2023-02-26T20:47:04;13.93;;;8.77;;
67571;SDS011;54397;47.506;19.158;2023-02-26T20:50:25;12.87;;;8.27;;
67571;SDS011;54397;47.506;19.158;2023-02-26T20:53:47;14.97;;;9.07;;
67571;SDS011;54397;47.506;19.158;2023-02-26T20:57:10;13.20;;;8.77;;
67571;SDS011;54397;47.506;19.158;2023-02-26T21:00:32;14.10;;;8.63;;
67571;SDS011;54397;47.506;19.158;2023-02-26T21:03:54;14.00;;;9.07;;
67571;SDS011;54397;47.506;19.158;2023-02-26T21:07:16;15.67;;;8.77;;
67571;SDS011;54397;47.506;19.158;2023-02-26T21:10:43;17.33;;;10.63;;
67571;SDS011;54397;47.506;19.158;2023-02-26T21:14:05;14.23;;;9.13;;
67571;SDS011;54397;47.506;19.158;2023-02-26T21:17:31;14.17;;;10.07;;
67571;SDS011;54397;47.506;19.158;2023-02-26T21:20:57;13.30;;;9.10;;
67571;SDS011;54397;47.506;19.158;2023-02-26T21:24:24;14.90;;;9.93;;
67571;SDS011;54397;47.506;19.158;2023-02-26T21:27:48;16.90;;;9.90;;
67571;SDS011;54397;47.506;19.158;2023-02-26T21:31:10;19.53;;;9.37;;
67571;SDS011;54397;47.506;19.158;2023-02-26T21:34:34;15.30;;;9.70;;
67571;SDS011;54397;47.506;19.158;2023-02-26T21:37:56;17.00;;;10.53;;
67571;SDS011;54397;47.506;19.158;2023-02-26T21:41:18;18.23;;;10.27;;
67571;SDS011;54397;47.506;19.158;2023-02-26T21:44:42;22.83;;;15.77;;
67571;SDS011;54397;47.506;19.158;2023-02-26T21:48:06;12.30;;;7.03;;
67571;SDS011;54397;47.506;19.158;2023-02-26T21:51:28;14.37;;;9.27;;
67571;SDS011;54397;47.506;19.158;2023-02-26T21:54:52;10.03;;;5.83;;
67571;SDS011;54397;47.506;19.158;2023-02-26T21:58:13;6.90;;;4.80;;
67571;SDS011;54397;47.506;19.158;2023-02-26T22:01:35;7.43;;;4.83;;
67571;SDS011;54397;47.506;19.158;2023-02-26T22:05:00;7.50;;;4.53;;
67571;SDS011;54397;47.506;19.158;2023-02-26T22:08:25;8.33;;;4.30;;
67571;SDS011;54397;47.506;19.158;2023-02-26T22:11:47;6.47;;;4.17;;
67571;SDS011;54397;47.506;19.158;2023-02-26T22:15:09;27.90;;;16.00;;
67571;SDS011;54397;47.506;19.158;2023-02-26T22:18:30;7.63;;;4.87;;
67571;SDS011;54397;47.506;19.158;2023-02-26T22:21:54;6.23;;;3.90;;
67571;SDS011;54397;47.506;19.158;2023-02-26T22:25:16;7.63;;;4.47;;
67571;SDS011;54397;47.506;19.158;2023-02-26T22:28:38;5.07;;;3.50;;
67571;SDS011;54397;47.506;19.158;2023-02-26T22:32:00;5.17;;;3.40;;
67571;SDS011;54397;47.506;19.158;2023-02-26T22:35:22;5.73;;;3.13;;
67571;SDS011;54397;47.506;19.158;2023-02-26T22:38:44;4.27;;;3.20;;
67571;SDS011;54397;47.506;19.158;2023-02-26T22:42:05;4.43;;;3.27;;
67571;SDS011;54397;47.506;19.158;2023-02-26T22:45:28;5.90;;;3.63;;
67571;SDS011;54397;47.506;19.158;2023-02-26T22:48:50;6.10;;;3.70;;
67571;SDS011;54397;47.506;19.158;2023-02-26T22:52:12;4.67;;;3.20;;
67571;SDS011;54397;47.506;19.158;2023-02-26T22:55:34;3.13;;;2.80;;
67571;SDS011;54397;47.506;19.158;2023-02-26T22:58:57;4.13;;;3.03;;
67571;SDS011;54397;47.506;19.158;2023-02-26T23:02:19;3.77;;;2.80;;
67571;SDS011;54397;47.506;19.158;2023-02-26T23:05:41;4.10;;;3.10;;
67571;SDS011;54397;47.506;19.158;2023-02-26T23:09:04;8.23;;;3.13;;
67571;SDS011;54397;47.506;19.158;2023-02-26T23:12:29;5.00;;;3.10;;
67571;SDS011;54397;47.506;19.158;2023-02-26T23:15:52;5.73;;;3.50;;
67571;SDS011;54397;47.506;19.158;2023-02-26T23:19:17;5.20;;;2.90;;
67571;SDS011;54397;47.506;19.158;2023-02-26T23:22:39;5.93;;;3.17;;
67571;SDS011;54397;47.506;19.158;2023-02-26T23:26:02;3.67;;;2.83;;
67571;SDS011;54397;47.506;19.158;2023-02-26T23:29:23;4.73;;;3.30;;
67571;SDS011;54397;47.506;19.158;2023-02-26T23:32:48;4.40;;;2.83;;
67571;SDS011;54397;47.506;19.158;2023-02-26T23:36:09;5.83;;;3.00;;
67571;SDS011;54397;47.506;19.158;2023-02-26T23:39:31;5.83;;;3.27;;